Date,TemperatureHighF,TemperatureAvgF,TemperatureLowF,DewpointHighF,DewpointAvgF,DewpointLowF,HumidityHigh,HumidityAvg,HumidityLow,PressureMaxIn,PressureMinIn,WindSpeedMaxMPH,WindSpeedAvgMPH,GustSpeedMaxMPH,PrecipitationSumIn
2012-12-1,81.8,67.8,57.8,63.8,59.2,55.3,93,75,49,30.22,30.12,10,0,11,0.00
2012-12-2,83.7,69.6,61.5,65.9,62.1,59.1,94,79,46,30.24,30.14,11,0,12,0.00
2012-12-3,82.4,70.5,64.6,67.4,63.5,60.2,93,80,52,30.24,30.14,10,0,11,0.00
2012-12-4,82.5,68.8,59.9,62.6,58.9,51.1,94,73,35,30.25,30.13,11,0,11,0.00
2012-12-5,80.5,67.8,59.9,66.1,61.3,57.2,92,80,55,30.15,30.00,9,0,9,0.00
2012-12-6,82.5,71.9,64.6,67.0,64.0,61.9,92,77,55,30.01,29.88,10,0,10,0.00
2012-12-7,79.2,68.1,63.3,67.9,64.1,61.8,96,87,66,29.98,29.88,10,0,11,0.00
2012-12-8,78.7,69.9,65.2,69.9,66.4,63.0,97,89,74,30.01,29.91,7,0,7,0.01
2012-12-9,76.5,68.4,63.6,70.1,66.0,62.7,97,92,78,30.06,29.97,6,0,9,0.00
2012-12-10,75.7,68.2,61.4,71.8,66.9,60.5,99,96,86,29.99,29.81,13,0,13,0.22
2012-12-11,75.2,71.1,67.3,73.2,69.7,66.3,98,95,90,29.99,29.84,10,0,12,0.02
2012-12-12,79.7,71.5,66.8,73.1,69.2,65.6,97,93,78,30.05,29.94,9,0,9,0.02
2012-12-13,70.2,64.7,56.9,65.2,59.7,52.4,95,84,70,30.17,30.03,18,1,18,0.00
2012-12-14,70.3,60.0,54.6,59.0,55.3,51.2,94,85,66,30.19,30.07,10,0,13,0.00
2012-12-15,78.5,64.4,55.4,67.5,60.9,54.0,97,89,65,30.11,30.01,6,0,6,0.02
2012-12-16,78.3,67.5,61.0,68.5,63.9,59.6,97,89,71,30.02,29.91,9,0,9,0.01
2012-12-17,76.0,69.3,63.0,71.0,67.0,61.5,96,92,84,29.94,29.84,14,0,15,0.01
2012-12-18,77.0,68.2,54.3,71.8,64.5,51.7,97,88,74,30.00,29.84,12,0,12,0.01
2012-12-19,78.5,61.9,50.7,57.3,52.5,43.8,95,75,32,30.08,29.99,9,0,9,0.01
2012-12-20,78.3,68.1,55.9,69.8,64.0,51.6,96,87,73,30.04,29.90,19,2,20,0.27
2012-12-21,67.6,58.4,55.1,66.0,45.8,38.7,95,63,52,30.19,29.95,19,4,21,0.00
2012-12-22,59.4,52.8,43.4,43.5,39.8,36.2,90,63,45,30.28,30.17,15,2,16,0.00
2012-12-23,66.0,53.1,41.0,47.1,41.0,30.3,93,67,28,30.23,30.11,1,0,1,0.01
2012-12-24,66.4,59.8,50.4,62.1,55.0,45.5,92,84,72,30.11,29.94,7,0,7,0.01
2012-12-25,72.0,65.3,57.5,64.3,59.8,55.8,95,83,66,29.98,29.83,15,0,15,0.01
2012-12-26,72.8,65.3,56.3,69.3,60.8,48.5,95,85,74,29.99,29.78,18,2,18,0.46
2012-12-27,58.6,52.9,44.6,50.5,47.3,42.6,94,82,72,30.09,29.98,13,0,14,0.00
2012-12-28,71.3,58.0,45.5,64.5,52.7,43.8,96,84,52,30.07,29.88,9,0,10,0.75
2012-12-29,71.7,65.4,54.3,68.5,62.0,47.6,97,89,73,30.15,29.83,19,2,20,0.06
2012-12-30,58.9,50.4,41.6,47.5,39.6,32.9,88,68,44,30.34,30.15,19,1,19,0.00
2012-12-31,72.0,57.1,44.8,58.3,51.0,42.0,94,81,59,30.32,30.16,10,0,11,0.00